Time;durP1;ratioP1;P1;durP2;ratioP2;P2;SDS_P1;SDS_P2;PMS_P1;PMS_P2;Temp;Humidity;BMP_temperature;BMP_pressure;BME280_temperature;BME280_humidity;BME280_pressure;Samples;Min_cycle;Max_cycle;Signal;HPM_P1;HPM_P2
2022/09/09 00:01:54;;;;;;;2.92;1.85;;;15.50;99.90;;;;;;5053357;28;20116;-74
2022/09/09 00:04:25;;;;;;;1.98;1.58;;;15.50;99.90;;;;;;5052424;28;20086;-74
2022/09/09 00:07:03;;;;;;;4.20;2.13;;;15.40;99.90;;;;;;5053078;28;20123;-74
2022/09/09 00:09:33;;;;;;;3.25;2.10;;;15.40;99.90;;;;;;5053635;28;20053;-76
2022/09/09 00:12:06;;;;;;;5.88;2.40;;;15.30;99.90;;;;;;5053085;28;20017;-73
2022/09/09 00:14:55;;;;;;;6.82;2.40;;;15.30;99.90;;;;;;5056430;28;20040;-75
2022/09/09 00:17:49;;;;;;;3.58;1.98;;;15.30;99.90;;;;;;5056724;28;20385;-74
2022/09/09 00:20:25;;;;;;;7.25;2.63;;;15.30;99.90;;;;;;5057255;28;20025;-75
2022/09/09 00:23:14;;;;;;;4.00;2.10;;;15.30;99.90;;;;;;5056885;28;20446;-75
2022/09/09 00:25:42;;;;;;;6.63;2.30;;;15.20;99.90;;;;;;5056278;28;20021;-75
2022/09/09 00:28:18;;;;;;;6.13;2.33;;;15.20;99.90;;;;;;5057086;28;20040;-74
2022/09/09 00:30:47;;;;;;;5.80;2.90;;;15.10;99.90;;;;;;5056219;28;20078;-74
2022/09/09 00:33:15;;;;;;;4.45;2.85;;;15.10;99.90;;;;;;5056863;28;20029;-74
2022/09/09 00:35:46;;;;;;;3.50;2.22;;;15.10;99.90;;;;;;5056652;28;20028;-74
2022/09/09 00:38:19;;;;;;;2.60;2.40;;;15.10;99.90;;;;;;5056274;28;20033;-75
2022/09/09 00:40:52;;;;;;;3.20;2.50;;;15.00;99.90;;;;;;5056826;28;20423;-75
2022/09/09 00:43:26;;;;;;;3.33;2.90;;;15.00;99.90;;;;;;5056772;28;20052;-75
2022/09/09 00:46:19;;;;;;;4.15;3.10;;;15.00;99.90;;;;;;5055995;28;20036;-76
2022/09/09 00:48:51;;;;;;;6.07;3.10;;;15.00;99.90;;;;;;5056687;28;20037;-75
2022/09/09 00:51:59;;;;;;;4.28;3.15;;;15.00;99.90;;;;;;5056588;28;20082;-76
2022/09/09 00:54:47;;;;;;;3.35;2.97;;;15.00;99.90;;;;;;5048528;28;20508;-74
2022/09/09 00:57:33;;;;;;;3.50;3.17;;;14.90;99.90;;;;;;5056495;28;20092;-74
2022/09/09 01:00:21;;;;;;;5.90;3.05;;;14.90;99.90;;;;;;5055566;28;20036;-75
2022/09/09 01:03:25;;;;;;;4.20;3.28;;;14.80;99.90;;;;;;5056351;28;20045;-75
2022/09/09 01:06:28;;;;;;;4.18;3.30;;;14.80;99.90;;;;;;5056023;28;20021;-75
2022/09/09 01:09:06;;;;;;;5.72;3.55;;;14.80;99.90;;;;;;5056175;28;20040;-74
2022/09/09 01:12:07;;;;;;;5.60;3.35;;;14.70;99.90;;;;;;5055960;28;20025;-75
2022/09/09 01:14:36;;;;;;;3.97;3.33;;;14.70;99.90;;;;;;5055494;28;20025;-75
2022/09/09 01:17:28;;;;;;;5.80;3.67;;;14.70;99.90;;;;;;5056106;28;20075;-75
2022/09/09 01:20:09;;;;;;;6.22;3.83;;;14.70;99.90;;;;;;5046128;28;20037;-75
2022/09/09 01:23:00;;;;;;;6.50;3.78;;;14.60;99.90;;;;;;5055825;28;20053;-75
2022/09/09 01:26:07;;;;;;;3.83;3.50;;;14.60;99.90;;;;;;5056042;28;20120;-74
2022/09/09 01:28:36;;;;;;;8.73;3.60;;;14.60;99.90;;;;;;5055087;28;20086;-74
2022/09/09 01:31:05;;;;;;;4.82;4.13;;;14.60;99.90;;;;;;5055885;28;20060;-74
2022/09/09 01:33:31;;;;;;;4.25;3.92;;;14.60;99.90;;;;;;5055898;28;20029;-74
2022/09/09 01:36:19;;;;;;;5.57;4.25;;;14.60;99.90;;;;;;5054982;28;20028;-74
2022/09/09 01:38:45;;;;;;;6.15;4.22;;;14.60;99.90;;;;;;5055830;28;20040;-74
2022/09/09 01:41:10;;;;;;;10.73;5.32;;;14.60;99.90;;;;;;5054960;28;20199;-74
2022/09/09 01:43:37;;;;;;;5.20;4.70;;;14.70;99.90;;;;;;5055588;28;20017;-75
2022/09/09 01:46:02;;;;;;;5.50;4.20;;;14.70;99.90;;;;;;5055686;28;20025;-75
2022/09/09 01:48:29;;;;;;;8.13;4.25;;;14.70;99.90;;;;;;5054798;28;20489;-75
2022/09/09 01:50:55;;;;;;;4.82;4.32;;;14.70;99.90;;;;;;5055387;28;20100;-73
2022/09/09 01:53:21;;;;;;;6.68;5.28;;;14.80;99.90;;;;;;5055630;28;20215;-76
2022/09/09 01:56:02;;;;;;;11.48;4.53;;;14.80;99.90;;;;;;5054827;28;20052;-74
2022/09/09 01:58:30;;;;;;;4.80;4.15;;;14.80;99.90;;;;;;5055554;28;20025;-74
2022/09/09 02:01:05;;;;;;;4.95;4.20;;;14.90;99.90;;;;;;5055367;28;20025;-74
2022/09/09 02:03:33;;;;;;;5.95;4.55;;;14.90;99.90;;;;;;5054738;28;20098;-74
2022/09/09 02:06:19;;;;;;;7.82;4.82;;;14.80;99.90;;;;;;5055594;28;20402;-74
2022/09/09 02:08:48;;;;;;;8.13;4.97;;;14.80;99.90;;;;;;5055066;28;20037;-75
2022/09/09 02:11:17;;;;;;;6.03;4.80;;;14.70;99.90;;;;;;5054440;28;20029;-75
2022/09/09 02:13:46;;;;;;;7.43;4.30;;;14.80;99.90;;;;;;5055358;28;20024;-75
2022/09/09 02:16:14;;;;;;;11.35;4.53;;;14.80;99.90;;;;;;5054833;28;20035;-74
2022/09/09 02:18:46;;;;;;;9.40;4.90;;;14.60;99.90;;;;;;5055321;28;20480;-74
2022/09/09 02:21:13;;;;;;;8.43;4.95;;;14.70;99.90;;;;;;5055305;28;20032;-75
2022/09/09 02:23:41;;;;;;;7.32;4.78;;;14.70;99.90;;;;;;5054507;28;20400;-74
2022/09/09 02:26:10;;;;;;;5.72;4.95;;;14.60;99.90;;;;;;5058295;28;20428;-74
2022/09/09 02:28:37;;;;;;;5.97;5.05;;;14.60;99.90;;;;;;5062163;28;20029;-75
2022/09/09 02:31:04;;;;;;;6.28;5.05;;;14.60;99.90;;;;;;5060480;28;20098;-74
2022/09/09 02:33:42;;;;;;;8.10;5.78;;;14.50;99.90;;;;;;5060083;28;20029;-75
2022/09/09 02:36:09;;;;;;;13.23;6.32;;;14.50;99.90;;;;;;5066464;28;20029;-74
2022/09/09 02:38:41;;;;;;;11.38;5.22;;;14.50;99.90;;;;;;5066333;28;20029;-74
2022/09/09 02:41:07;;;;;;;5.07;4.68;;;14.50;99.90;;;;;;5063968;28;20020;-74
2022/09/09 02:43:33;;;;;;;6.80;5.82;;;14.40;99.90;;;;;;5056850;28;20539;-74
2022/09/09 02:46:23;;;;;;;6.05;5.00;;;14.40;99.90;;;;;;5053702;28;20028;-75
2022/09/09 02:49:11;;;;;;;9.20;5.32;;;14.40;99.90;;;;;;5054397;28;20504;-75
2022/09/09 02:52:00;;;;;;;7.57;5.03;;;14.30;99.90;;;;;;5053620;28;20036;-74
2022/09/09 02:54:30;;;;;;;7.03;6.35;;;14.30;99.90;;;;;;5054430;28;20028;-74
2022/09/09 02:57:06;;;;;;;6.47;5.13;;;14.30;99.90;;;;;;5054364;28;20025;-74
2022/09/09 02:59:32;;;;;;;6.88;6.05;;;14.30;99.90;;;;;;5053448;28;20090;-75
2022/09/09 03:01:58;;;;;;;6.35;5.15;;;14.20;99.90;;;;;;5054173;28;20412;-75
2022/09/09 03:04:24;;;;;;;6.93;5.30;;;14.20;99.90;;;;;;5054219;28;20045;-75
2022/09/09 03:06:50;;;;;;;12.30;5.82;;;14.20;99.90;;;;;;5053240;28;20083;-75
2022/09/09 03:09:16;;;;;;;9.38;5.03;;;14.20;99.90;;;;;;5053881;28;20033;-75
2022/09/09 03:11:41;;;;;;;9.35;4.70;;;14.20;99.90;;;;;;5053975;28;20017;-75
2022/09/09 03:14:08;;;;;;;6.50;4.65;;;14.20;99.90;;;;;;5052033;28;20029;-75
2022/09/09 03:16:34;;;;;;;7.50;5.05;;;14.20;99.90;;;;;;5054009;28;20025;-75
2022/09/09 03:19:03;;;;;;;5.95;4.68;;;14.10;99.90;;;;;;5054072;28;20033;-75
2022/09/09 03:21:29;;;;;;;6.28;4.45;;;14.10;99.90;;;;;;5053208;28;20032;-75
2022/09/09 03:23:54;;;;;;;10.18;5.13;;;14.10;99.90;;;;;;5053969;28;20050;-75
2022/09/09 03:26:20;;;;;;;7.78;4.50;;;14.10;99.90;;;;;;5053838;28;20020;-75
2022/09/09 03:28:45;;;;;;;5.25;4.65;;;14.00;99.90;;;;;;5053033;28;20033;-75
2022/09/09 03:31:14;;;;;;;7.63;4.70;;;14.10;99.90;;;;;;5053752;28;20427;-75
2022/09/09 03:33:41;;;;;;;6.20;4.60;;;14.00;99.90;;;;;;5053669;28;20032;-75
2022/09/09 03:36:08;;;;;;;7.32;4.00;;;14.00;99.90;;;;;;5054394;28;20025;-75
2022/09/09 03:38:34;;;;;;;15.05;5.22;;;14.00;99.90;;;;;;5053760;28;20104;-75
2022/09/09 03:41:01;;;;;;;12.65;5.05;;;14.00;99.90;;;;;;5052865;28;20116;-75
2022/09/09 03:43:28;;;;;;;9.80;4.45;;;14.00;99.90;;;;;;5053716;28;20040;-75
2022/09/09 03:45:56;;;;;;;5.00;3.85;;;13.90;99.90;;;;;;5053635;28;20013;-74
2022/09/09 03:48:24;;;;;;;5.05;4.07;;;13.90;99.90;;;;;;5051847;28;20102;-75
2022/09/09 03:50:51;;;;;;;6.05;4.15;;;13.90;99.90;;;;;;5068691;28;20024;-74
2022/09/09 03:53:20;;;;;;;12.55;5.25;;;13.90;99.90;;;;;;5054032;28;20025;-75
2022/09/09 03:55:49;;;;;;;6.28;4.68;;;13.90;99.90;;;;;;5052709;28;20025;-73
2022/09/09 03:58:18;;;;;;;9.90;4.65;;;13.90;99.90;;;;;;5053569;28;20111;-74
2022/09/09 04:00:52;;;;;;;5.25;4.63;;;13.90;99.90;;;;;;5053381;28;20389;-74
2022/09/09 04:03:18;;;;;;;6.72;5.05;;;13.90;99.90;;;;;;5052556;28;20029;-75
2022/09/09 04:05:44;;;;;;;8.10;4.18;;;13.90;99.90;;;;;;5053350;28;20096;-73
2022/09/09 04:08:09;;;;;;;10.82;4.72;;;13.80;99.90;;;;;;5056878;28;20060;-76
2022/09/09 04:10:37;;;;;;;8.73;4.82;;;13.70;99.90;;;;;;5057846;28;20005;-74
2022/09/09 04:13:03;;;;;;;4.90;4.45;;;13.80;99.90;;;;;;5060126;28;20107;-74
2022/09/09 04:15:29;;;;;;;12.00;6.22;;;13.80;99.90;;;;;;5057820;28;20374;-73
2022/09/09 04:17:55;;;;;;;8.50;4.35;;;13.80;99.90;;;;;;5058427;28;20370;-75
2022/09/09 04:20:21;;;;;;;9.45;4.53;;;13.80;99.90;;;;;;5057371;28;20553;-74
2022/09/09 04:22:47;;;;;;;7.57;4.18;;;13.80;99.90;;;;;;5056790;28;20095;-74
2022/09/09 04:25:13;;;;;;;11.15;4.10;;;13.80;99.90;;;;;;5059075;28;20389;-75
2022/09/09 04:27:39;;;;;;;10.55;3.90;;;13.80;99.90;;;;;;5058254;28;20167;-75
2022/09/09 04:30:06;;;;;;;7.65;4.30;;;13.80;99.90;;;;;;5060876;28;20013;-74
2022/09/09 04:32:33;;;;;;;8.90;4.28;;;13.80;99.90;;;;;;5060092;28;20074;-74
2022/09/09 04:34:58;;;;;;;5.90;4.28;;;13.80;99.90;;;;;;5059251;28;20028;-75
2022/09/09 04:37:24;;;;;;;6.28;3.53;;;13.80;99.90;;;;;;5057644;28;20478;-74
2022/09/09 04:39:50;;;;;;;4.72;3.53;;;13.80;99.90;;;;;;5053168;28;20021;-74
2022/09/09 04:42:17;;;;;;;7.32;3.60;;;13.80;99.90;;;;;;5053236;28;20018;-75
2022/09/09 04:44:43;;;;;;;4.53;3.30;;;13.80;99.90;;;;;;5052199;28;20017;-74
2022/09/09 04:47:09;;;;;;;4.38;3.50;;;13.80;99.90;;;;;;5052812;28;20112;-74
2022/09/09 04:49:36;;;;;;;10.18;4.60;;;13.80;99.90;;;;;;5053179;28;20114;-73
2022/09/09 04:52:03;;;;;;;7.00;3.75;;;13.90;99.90;;;;;;5051908;28;20033;-74
2022/09/09 04:54:29;;;;;;;7.22;3.75;;;13.80;99.90;;;;;;5053240;28;20032;-74
2022/09/09 04:56:54;;;;;;;7.65;3.47;;;14.00;99.90;;;;;;5052724;28;20032;-74
2022/09/09 04:59:21;;;;;;;5.55;3.55;;;13.80;99.90;;;;;;5053612;28;20029;-74
2022/09/09 05:01:47;;;;;;;5.43;3.72;;;13.90;99.90;;;;;;5056683;28;20391;-74
2022/09/09 05:04:14;;;;;;;7.13;3.42;;;13.80;99.90;;;;;;5056326;28;20029;-75
2022/09/09 05:06:42;;;;;;;7.20;3.58;;;13.80;99.90;;;;;;5055189;28;20469;-74
2022/09/09 05:09:08;;;;;;;8.30;4.45;;;13.80;99.90;;;;;;5056132;28;20029;-75
2022/09/09 05:11:36;;;;;;;6.78;3.97;;;13.90;99.90;;;;;;5056112;28;20025;-75
2022/09/09 05:14:02;;;;;;;8.23;3.78;;;13.80;99.90;;;;;;5054427;28;20055;-74
2022/09/09 05:16:28;;;;;;;9.55;4.28;;;13.90;99.90;;;;;;5056452;28;20025;-74
2022/09/09 05:18:54;;;;;;;5.50;3.45;;;13.80;99.90;;;;;;5056445;28;20105;-74
2022/09/09 05:21:22;;;;;;;9.07;3.38;;;13.90;99.90;;;;;;5055799;28;20032;-73
2022/09/09 05:23:48;;;;;;;8.27;3.65;;;13.90;99.90;;;;;;5055748;28;20066;-73
2022/09/09 05:26:16;;;;;;;6.07;3.63;;;13.90;99.90;;;;;;5055311;28;20070;-73
2022/09/09 05:28:42;;;;;;;7.13;3.75;;;13.90;99.90;;;;;;5056121;28;20029;-73
2022/09/09 05:31:11;;;;;;;6.63;3.65;;;13.90;99.90;;;;;;5056106;28;20036;-73
2022/09/09 05:33:37;;;;;;;5.93;3.83;;;14.00;99.90;;;;;;5055024;28;20025;-73
2022/09/09 05:36:14;;;;;;;9.90;3.60;;;13.90;99.90;;;;;;5055982;28;20032;-73
2022/09/09 05:38:40;;;;;;;5.22;3.35;;;14.00;99.90;;;;;;5055550;28;20025;-74
2022/09/09 05:41:06;;;;;;;9.82;3.10;;;14.00;99.90;;;;;;5055285;28;20026;-75
2022/09/09 05:43:32;;;;;;;8.68;3.08;;;14.00;99.90;;;;;;5056012;28;20114;-74
2022/09/09 05:46:07;;;;;;;8.95;3.97;;;14.10;99.90;;;;;;5055589;28;20457;-74
2022/09/09 05:48:41;;;;;;;8.30;3.13;;;14.10;99.90;;;;;;5054839;28;20044;-74
2022/09/09 05:51:15;;;;;;;15.00;4.03;;;14.20;99.90;;;;;;5055624;28;20032;-73
2022/09/09 05:53:41;;;;;;;8.88;3.40;;;14.30;99.90;;;;;;5055398;28;20029;-74
2022/09/09 05:56:10;;;;;;;12.05;4.32;;;14.30;99.90;;;;;;5054417;28;20024;-75
2022/09/09 05:58:36;;;;;;;7.70;3.70;;;14.30;99.90;;;;;;5055209;28;20051;-73
2022/09/09 06:01:14;;;;;;;6.07;3.53;;;14.40;99.90;;;;;;5055198;28;20029;-74
2022/09/09 06:03:41;;;;;;;12.00;3.53;;;14.40;99.90;;;;;;5054998;28;20052;-75
2022/09/09 06:06:13;;;;;;;9.55;3.60;;;14.60;99.90;;;;;;5055392;28;20029;-74
2022/09/09 06:08:41;;;;;;;7.28;3.03;;;14.60;99.90;;;;;;5054514;28;20531;-75
2022/09/09 06:11:08;;;;;;;12.65;3.65;;;14.70;99.90;;;;;;5054339;28;20025;-74
2022/09/09 06:13:34;;;;;;;6.10;3.15;;;14.80;99.90;;;;;;5055306;28;20025;-74
2022/09/09 06:16:00;;;;;;;8.23;2.92;;;14.80;99.90;;;;;;5053869;28;20037;-74
2022/09/09 06:18:26;;;;;;;8.10;2.75;;;15.00;99.90;;;;;;5054654;28;20031;-75
2022/09/09 06:21:06;;;;;;;8.52;3.33;;;15.10;99.90;;;;;;5054877;28;20064;-74
2022/09/09 06:23:32;;;;;;;6.68;2.60;;;15.20;99.90;;;;;;5053835;28;20501;-74
2022/09/09 06:26:17;;;;;;;11.75;3.28;;;15.30;99.90;;;;;;5054812;28;20440;-74
2022/09/09 06:28:44;;;;;;;4.68;2.22;;;15.50;99.90;;;;;;5054776;28;20060;-74
2022/09/09 06:31:11;;;;;;;8.93;3.50;;;15.60;99.90;;;;;;5053994;28;20104;-74
2022/09/09 06:33:40;;;;;;;5.50;2.83;;;15.70;99.90;;;;;;5054660;28;20074;-74
2022/09/09 06:36:11;;;;;;;10.18;3.08;;;15.70;99.90;;;;;;5054717;28;20029;-75
2022/09/09 06:38:37;;;;;;;15.02;3.25;;;15.80;99.90;;;;;;5054466;28;20039;-74
2022/09/09 06:41:05;;;;;;;14.18;3.50;;;15.80;99.90;;;;;;5054582;28;20047;-74
2022/09/09 06:43:31;;;;;;;14.30;4.35;;;15.90;99.90;;;;;;5053874;28;20036;-74
2022/09/09 06:46:05;;;;;;;12.25;3.20;;;16.00;99.90;;;;;;5054730;28;20021;-74
2022/09/09 06:48:31;;;;;;;9.20;3.03;;;16.20;99.90;;;;;;5054316;28;20481;-74
2022/09/09 06:51:08;;;;;;;13.70;3.78;;;16.30;99.90;;;;;;5053920;28;20048;-74
2022/09/09 06:53:35;;;;;;;9.85;3.10;;;16.50;99.90;;;;;;5054666;28;20024;-74
2022/09/09 06:56:23;;;;;;;7.00;3.08;;;16.60;99.90;;;;;;5054810;28;20029;-74
2022/09/09 06:58:51;;;;;;;13.00;3.30;;;16.70;99.90;;;;;;5053382;28;20028;-74
2022/09/09 07:01:23;;;;;;;10.20;2.88;;;16.80;99.90;;;;;;5055004;28;20491;-75
2022/09/09 07:03:50;;;;;;;8.52;3.72;;;16.90;99.90;;;;;;5059403;28;20369;-75
2022/09/09 07:06:21;;;;;;;9.85;3.33;;;16.90;99.90;;;;;;5057643;28;20014;-75
2022/09/09 07:08:54;;;;;;;8.23;3.55;;;17.00;99.90;;;;;;5057521;28;20381;-75
2022/09/09 07:11:22;;;;;;;7.70;2.53;;;17.00;99.90;;;;;;5055872;28;20138;-74
2022/09/09 07:13:49;;;;;;;5.25;2.60;;;17.00;99.90;;;;;;5056375;28;20029;-74
2022/09/09 07:16:17;;;;;;;15.32;4.43;;;17.00;99.90;;;;;;5059997;28;20096;-75
2022/09/09 07:18:44;;;;;;;14.05;2.97;;;17.00;99.90;;;;;;5054856;28;20472;-74
2022/09/09 07:21:11;;;;;;;8.73;2.95;;;17.00;99.90;;;;;;5054070;28;20017;-74
2022/09/09 07:23:40;;;;;;;13.70;3.88;;;17.10;99.90;;;;;;5053527;28;20127;-74
2022/09/09 07:26:10;;;;;;;7.15;3.20;;;17.20;99.90;;;;;;5053240;28;20031;-75
2022/09/09 07:28:36;;;;;;;12.27;3.08;;;17.20;99.90;;;;;;5053873;28;20033;-73
2022/09/09 07:31:03;;;;;;;8.85;2.55;;;17.20;99.90;;;;;;5053883;28;20051;-74
2022/09/09 07:33:33;;;;;;;10.45;3.22;;;17.20;99.90;;;;;;5053021;28;20040;-74
2022/09/09 07:36:22;;;;;;;7.60;2.78;;;17.10;99.90;;;;;;5053885;28;20067;-75
2022/09/09 07:38:51;;;;;;;13.25;3.15;;;17.00;99.90;;;;;;5053903;28;20037;-75
2022/09/09 07:41:26;;;;;;;7.55;3.22;;;17.10;99.90;;;;;;5053097;28;20067;-75
2022/09/09 07:43:55;;;;;;;10.73;3.67;;;16.90;99.90;;;;;;5053851;28;20029;-75
2022/09/09 07:46:24;;;;;;;10.07;3.95;;;17.20;99.90;;;;;;5053749;28;20512;-75
2022/09/09 07:48:52;;;;;;;8.93;3.00;;;17.30;99.90;;;;;;5052530;28;20037;-75
2022/09/09 07:51:22;;;;;;;9.65;3.15;;;17.40;99.90;;;;;;5053400;28;20469;-75
2022/09/09 07:53:51;;;;;;;6.18;2.97;;;17.50;99.90;;;;;;5052731;28;20041;-75
2022/09/09 07:56:17;;;;;;;10.77;3.10;;;17.50;99.90;;;;;;5053391;28;20021;-75
2022/09/09 07:58:46;;;;;;;8.15;2.70;;;17.50;99.90;;;;;;5053273;28;20078;-76
2022/09/09 08:01:16;;;;;;;14.10;3.65;;;17.60;99.90;;;;;;5052480;28;20035;-75
2022/09/09 08:03:43;;;;;;;7.05;2.95;;;17.60;99.90;;;;;;5053449;28;20029;-75
2022/09/09 08:06:09;;;;;;;9.68;3.22;;;17.60;99.90;;;;;;5053135;28;20403;-75
2022/09/09 08:08:35;;;;;;;5.93;2.97;;;17.50;99.90;;;;;;5052586;28;20037;-75
2022/09/09 08:11:14;;;;;;;10.88;3.28;;;17.50;99.90;;;;;;5053299;28;20072;-74
2022/09/09 08:13:40;;;;;;;12.05;3.05;;;17.50;99.90;;;;;;5053217;28;20025;-76
2022/09/09 08:16:23;;;;;;;12.63;2.72;;;17.40;99.90;;;;;;5052465;28;20518;-76
2022/09/09 08:18:53;;;;;;;7.70;2.90;;;17.30;99.90;;;;;;5053255;28;20040;-75
2022/09/09 08:21:22;;;;;;;7.55;2.42;;;17.30;99.90;;;;;;5053314;28;20025;-76
2022/09/09 08:23:49;;;;;;;7.68;2.90;;;17.20;99.90;;;;;;5052224;28;20045;-74
2022/09/09 08:26:21;;;;;;;10.35;3.40;;;17.20;99.90;;;;;;5053036;28;20022;-75
2022/09/09 08:28:52;;;;;;;11.57;3.38;;;17.20;99.90;;;;;;5053235;28;20063;-74
2022/09/09 08:31:19;;;;;;;;;;;17.30;99.90;;;;;;5052768;28;20021;-74
2022/09/09 08:33:45;;;;;;;8.20;3.42;;;17.40;99.90;;;;;;5053436;28;19911;-76
2022/09/09 08:36:15;;;;;;;9.10;2.63;;;17.50;99.90;;;;;;5056247;28;20032;-74
2022/09/09 08:38:41;;;;;;;8.35;3.13;;;17.70;99.90;;;;;;5056722;28;20029;-76
2022/09/09 08:41:33;;;;;;;7.63;2.90;;;17.80;99.90;;;;;;5056901;28;20033;-75
2022/09/09 08:44:25;;;;;;;14.20;2.90;;;17.80;99.90;;;;;;5056190;28;20108;-74
2022/09/09 08:47:06;;;;;;;9.07;2.90;;;17.90;99.90;;;;;;5056700;28;20464;-75
2022/09/09 08:49:50;;;;;;;;;;;17.90;99.90;;;;;;5057024;28;20079;-75
2022/09/09 08:52:36;;;;;;;19.45;3.38;;;17.90;99.90;;;;;;5055888;28;19908;-76
2022/09/09 08:55:24;;;;;;;9.70;2.65;;;17.80;99.90;;;;;;5056817;28;20035;-77
2022/09/09 08:57:53;;;;;;;7.10;2.67;;;17.80;99.90;;;;;;5055344;28;20106;-75
2022/09/09 09:00:20;;;;;;;9.18;2.97;;;17.70;99.90;;;;;;5057103;28;20094;-74
2022/09/09 09:03:17;;;;;;;7.03;3.10;;;17.70;99.90;;;;;;5056444;28;20542;-75
2022/09/09 09:06:21;;;;;;;9.63;2.50;;;17.60;99.90;;;;;;5045601;28;20052;-76
2022/09/09 09:09:23;;;;;;;12.40;3.08;;;17.60;99.90;;;;;;5056217;28;20037;-76
2022/09/09 09:12:00;;;;;;;8.15;2.22;;;17.50;99.90;;;;;;5055649;28;20029;-76
2022/09/09 09:14:30;;;;;;;9.82;2.75;;;17.50;99.90;;;;;;5056146;28;20029;-76
2022/09/09 09:17:14;;;;;;;8.68;2.92;;;17.50;99.90;;;;;;5056275;28;20033;-76
2022/09/09 09:19:41;;;;;;;17.77;3.20;;;17.50;99.90;;;;;;5055755;28;20037;-77
2022/09/09 09:22:16;;;;;;;8.52;2.53;;;17.60;99.90;;;;;;5055999;28;20037;-75
2022/09/09 09:25:08;;;;;;;9.82;2.67;;;17.60;99.90;;;;;;5055936;28;20485;-77
2022/09/09 09:28:00;;;;;;;9.30;2.53;;;17.70;99.90;;;;;;5055175;28;20041;-74
2022/09/09 09:30:31;;;;;;;5.10;2.08;;;17.60;99.90;;;;;;5056342;28;20025;-76
2022/09/09 09:33:05;;;;;;;14.43;2.85;;;17.60;99.90;;;;;;5055228;28;20025;-76
2022/09/09 09:35:31;;;;;;;8.25;3.47;;;17.60;99.90;;;;;;5056045;28;20041;-75
2022/09/09 09:37:57;;;;;;;14.05;2.92;;;17.60;99.90;;;;;;5055918;28;20109;-75
2022/09/09 09:40:23;;;;;;;10.70;3.45;;;17.60;99.90;;;;;;5055061;28;20051;-75
2022/09/09 09:43:00;;;;;;;11.10;3.03;;;17.60;99.90;;;;;;5055940;28;20461;-74
2022/09/09 09:45:32;;;;;;;9.70;2.65;;;17.50;99.90;;;;;;5055066;28;20025;-74
2022/09/09 09:48:03;;;;;;;7.95;2.80;;;17.50;99.90;;;;;;5054831;28;20039;-74
2022/09/09 09:50:31;;;;;;;6.93;2.90;;;17.40;99.90;;;;;;5055905;28;20028;-74
2022/09/09 09:53:06;;;;;;;13.77;3.88;;;17.50;99.90;;;;;;5055805;28;20034;-75
2022/09/09 09:55:47;;;;;;;8.43;2.70;;;17.40;99.90;;;;;;5055201;28;20037;-75
2022/09/09 09:58:15;;;;;;;;;;;17.60;99.90;;;;;;5056828;28;20040;-75
2022/09/09 10:00:50;;;;;;;10.80;3.08;;;17.50;99.90;;;;;;5054910;28;19912;-74
2022/09/09 10:03:21;;;;;;;7.63;2.78;;;17.60;99.90;;;;;;5055431;28;20093;-74
2022/09/09 10:05:53;;;;;;;6.35;2.20;;;17.70;99.90;;;;;;5055331;28;20028;-74
2022/09/09 10:08:20;;;;;;;9.40;3.17;;;17.90;99.90;;;;;;5054305;28;20190;-75
2022/09/09 10:10:51;;;;;;;9.20;2.88;;;18.10;99.90;;;;;;5055243;28;20052;-74
2022/09/09 10:13:40;;;;;;;13.02;3.33;;;18.30;99.90;;;;;;5055211;28;20039;-75
2022/09/09 10:16:36;;;;;;;5.55;2.28;;;18.50;99.90;;;;;;5054379;28;20017;-74
2022/09/09 10:19:08;;;;;;;8.10;2.80;;;18.80;99.90;;;;;;5054931;28;20031;-74
2022/09/09 10:21:57;;;;;;;8.85;2.60;;;19.10;99.90;;;;;;5054277;28;20036;-75
2022/09/09 10:24:44;;;;;;;6.55;2.30;;;19.40;99.90;;;;;;5055067;28;20033;-76
2022/09/09 10:27:25;;;;;;;9.82;2.35;;;19.50;99.90;;;;;;5054865;28;20064;-75
2022/09/09 10:30:02;;;;;;;7.20;2.30;;;19.60;99.90;;;;;;5054277;28;20104;-76
2022/09/09 10:32:38;;;;;;;12.50;2.60;;;19.60;99.90;;;;;;5054984;28;20028;-76
2022/09/09 10:35:22;;;;;;;7.07;2.28;;;19.60;99.90;;;;;;5054866;28;20049;-75
2022/09/09 10:38:12;;;;;;;17.80;2.95;;;19.60;99.90;;;;;;5053979;28;20104;-75
2022/09/09 10:40:53;;;;;;;6.67;2.70;;;19.50;99.90;;;;;;5054846;28;20035;-76
2022/09/09 10:43:45;;;;;;;8.02;2.50;;;19.50;99.90;;;;;;5054284;28;20439;-75
2022/09/09 10:46:28;;;;;;;4.93;2.20;;;19.50;99.90;;;;;;5054828;28;20024;-76
2022/09/09 10:49:27;;;;;;;5.03;2.00;;;19.50;99.90;;;;;;5054506;28;20032;-75
2022/09/09 10:52:07;;;;;;;7.40;2.20;;;19.40;99.90;;;;;;5054021;28;20479;-75
2022/09/09 10:54:51;;;;;;;7.53;2.72;;;19.30;99.90;;;;;;5054725;28;20025;-73
2022/09/09 10:57:34;;;;;;;6.20;2.05;;;19.20;99.90;;;;;;5053595;28;20469;-76
2022/09/09 11:00:05;;;;;;;6.00;2.35;;;19.00;99.90;;;;;;5055085;28;20496;-78
2022/09/09 11:02:33;;;;;;;7.38;2.67;;;18.80;99.90;;;;;;5053453;28;20477;-76
2022/09/09 11:05:19;;;;;;;8.70;2.67;;;18.60;99.90;;;;;;5053699;28;20469;-75
2022/09/09 11:08:06;;;;;;;8.75;2.47;;;18.40;99.90;;;;;;5054840;28;20120;-74
2022/09/09 11:10:55;;;;;;;9.00;3.03;;;18.30;99.90;;;;;;5054403;28;20061;-75
2022/09/09 11:13:38;;;;;;;4.70;1.88;;;18.30;99.90;;;;;;5054833;28;20032;-76
2022/09/09 11:16:34;;;;;;;5.35;2.08;;;18.20;99.90;;;;;;5054371;28;20358;-75
2022/09/09 11:19:09;;;;;;;5.20;2.53;;;18.20;99.90;;;;;;5053805;28;20362;-77
2022/09/09 11:21:40;;;;;;;4.38;2.13;;;18.00;99.90;;;;;;5054220;28;20025;-75
2022/09/09 11:24:25;;;;;;;6.90;2.33;;;17.90;99.90;;;;;;5054299;28;20029;-76
2022/09/09 11:26:57;;;;;;;5.65;2.28;;;17.80;99.90;;;;;;5053422;28;20064;-75
2022/09/09 11:29:43;;;;;;;7.90;2.67;;;17.70;99.90;;;;;;5057296;28;20390;-76
2022/09/09 11:32:28;;;;;;;5.22;1.98;;;17.70;99.90;;;;;;5058339;28;20033;-74
2022/09/09 11:35:26;;;;;;;9.05;2.80;;;17.70;99.90;;;;;;5060014;28;20492;-76
2022/09/09 11:38:24;;;;;;;6.63;3.10;;;17.80;99.90;;;;;;5060282;28;20025;-76
2022/09/09 11:41:06;;;;;;;4.57;2.58;;;17.90;99.90;;;;;;5061087;28;20043;-77
2022/09/09 11:43:52;;;;;;;7.07;2.70;;;18.20;99.90;;;;;;5065314;28;20491;-75
2022/09/09 11:46:22;;;;;;;5.03;2.72;;;18.50;99.90;;;;;;5062461;28;20029;-74
2022/09/09 11:49:02;;;;;;;8.33;2.80;;;18.80;99.90;;;;;;5053782;28;20082;-76
2022/09/09 11:51:30;;;;;;;4.40;2.20;;;19.00;99.90;;;;;;5053548;28;20264;-76
2022/09/09 11:54:02;;;;;;;7.43;2.78;;;19.20;99.90;;;;;;5052736;28;20067;-75
2022/09/09 11:56:33;;;;;;;4.85;3.53;;;19.20;99.90;;;;;;5053619;28;20060;-75
2022/09/09 11:59:03;;;;;;;6.50;2.65;;;19.40;99.90;;;;;;5053613;28;20025;-75
2022/09/09 12:01:33;;;;;;;4.82;3.00;;;19.40;99.90;;;;;;5053121;28;20104;-74
2022/09/09 12:04:06;;;;;;;;;;;19.50;99.90;;;;;;5053811;28;20074;-75
2022/09/09 12:06:41;;;;;;;4.03;2.60;;;19.50;99.90;;;;;;5053587;28;19909;-76
2022/09/09 12:09:15;;;;;;;6.35;2.90;;;19.70;99.90;;;;;;5053413;28;20040;-75
2022/09/09 12:11:41;;;;;;;9.95;3.03;;;19.90;99.90;;;;;;5056367;28;20028;-76
2022/09/09 12:14:34;;;;;;;5.32;2.55;;;20.10;99.90;;;;;;5056773;28;20028;-75
2022/09/09 12:17:22;;;;;;;4.60;2.70;;;20.20;99.90;;;;;;5057433;28;20032;-74
2022/09/09 12:20:04;;;;;;;94.22;11.85;;;20.40;99.90;;;;;;5057300;28;20045;-75
2022/09/09 12:22:40;;;;;;;5.45;2.28;;;20.40;99.90;;;;;;5056451;28;20052;-76
2022/09/09 12:25:23;;;;;;;6.63;2.85;;;20.60;99.90;;;;;;5057451;28;20025;-75
2022/09/09 12:28:06;;;;;;;83.20;10.80;;;20.70;99.90;;;;;;5057300;28;20032;-74
2022/09/09 12:30:55;;;;;;;7.80;2.92;;;20.70;99.90;;;;;;5057334;28;20053;-74
2022/09/09 12:33:21;;;;;;;6.60;2.63;;;20.60;99.90;;;;;;5057247;28;20029;-77
2022/09/09 12:35:54;;;;;;;4.88;2.70;;;20.60;99.90;;;;;;5056371;28;20021;-74
2022/09/09 12:38:32;;;;;;;15.50;3.80;;;20.40;99.90;;;;;;5057076;28;20117;-75
2022/09/09 12:41:00;;;;;;;7.13;2.95;;;20.30;99.90;;;;;;5056996;28;20039;-75
2022/09/09 12:43:27;;;;;;;7.07;2.35;;;20.30;99.90;;;;;;5056632;28;20104;-77
2022/09/09 12:46:07;;;;;;;7.20;2.70;;;20.50;99.90;;;;;;5057020;28;20119;-76
2022/09/09 12:48:45;;;;;;;10.93;3.03;;;20.60;99.90;;;;;;5056609;28;20121;-76
2022/09/09 12:51:24;;;;;;;8.63;3.15;;;20.70;99.90;;;;;;5056225;28;20033;-74
2022/09/09 12:53:51;;;;;;;7.57;3.15;;;20.60;99.90;;;;;;5056859;28;20032;-75
2022/09/09 12:56:36;;;;;;;5.35;2.60;;;20.50;99.90;;;;;;5056322;28;20397;-75
2022/09/09 12:59:01;;;;;;;4.50;1.98;;;20.50;99.90;;;;;;5056954;28;20029;-75
2022/09/09 13:01:32;;;;;;;7.07;2.55;;;20.40;99.90;;;;;;5056908;28;20389;-74
2022/09/09 13:03:59;;;;;;;4.35;3.00;;;20.30;99.90;;;;;;5056516;28;20082;-75
2022/09/09 13:06:29;;;;;;;7.38;3.05;;;20.20;99.90;;;;;;5056557;28;20538;-74
2022/09/09 13:08:58;;;;;;;7.20;2.35;;;20.10;99.90;;;;;;5056503;28;20044;-76
2022/09/09 13:11:46;;;;;;;10.23;3.08;;;19.90;99.90;;;;;;5055935;28;20465;-76
2022/09/09 13:14:20;;;;;;;3.72;2.70;;;19.60;99.90;;;;;;5056292;28;20040;-77
2022/09/09 13:16:56;;;;;;;4.55;2.30;;;19.40;99.90;;;;;;5057664;28;20488;-76
2022/09/09 13:19:22;;;;;;;6.22;3.15;;;19.20;99.90;;;;;;5056033;28;20496;-76